Grand Teton National Park, WY

3:38 PM MDT on October 21, 2014 (GMT -0600)
Dubois Muni, Dubois, WY | Change Station
CLOSE
Current Station
Airport
Location: Dubois Muni, Dubois, WY,
Elevation: 7297 ft
Nearby Weather Stations

Elev 7297 ft 43.55 °N, 109.69 °W | Updated 23 minutes ago

Overcast
Overcast
52 °F
Feels Like 52 °F
N
30
Wind Variable Wind from WNW

Today
High -- | Low -- °F
--% Chance of Precip.
Yesterday
High -- | Low -- °F
Precip. -- in
7:43 AM 6:27 PM
Waning Crescent, 4% visible
Pressure 29.92 in
Visibility 10.0 miles
Clouds Clear
Dew Point 34 °F
Humidity 50%
Rainfall 0.00 in
Snow Depth 0 in , 0 in
UV 3 out of 12
Pollen 3.00 out of 12
Air Quality Not available.
Flu Activity Sporadic
METAR KDUB 212115Z AUTO 29026KT 10SM CLR 11/01 A2992 RMK AO2

More Conditions Fewer Conditions

Pressure 29.92 in
Visibility 10.0 miles
Clouds Clear
Dew Point 34 °F
Humidity 50%
Rainfall 0.00 in
Snow Depth 0 in , 0 in
UV 3 out of 12
Pollen 3.00 out of 12
Air Quality Not available.
Flu Activity Sporadic
METAR KDUB 212115Z AUTO 29026KT 10SM CLR 11/01 A2992 RMK AO2

More Conditions Fewer Conditions

10-Day Weather Forecast

Almanac

Astronomy

Oct. 21, 2014 Rise Set
Actual Time 7:43 AM MDT 6:27 PM MDT
Civil Twilight 7:14 AM MDT 6:56 PM MDT
Nautical Twilight 6:40 AM MDT 7:30 PM MDT
Astronomical Twilight 6:07 AM MDT 8:03 PM MDT
Moon 5:26 AM MDT 5:26 PM MDT
Length of Visible Light 11h 42m
Length of Day
10h 44m
Tomorrow will be 2m 51s shorter.
Waning Crescent, 4% of the Moon is Illuminated
Today
Waning Crescent
Oct 23
New
Oct 30
First Quarter
Nov 6
Full
Nov 14
Last Quarter

Today's Extremes

State Highs State Lows

Community

WunderPhotos

Upload Photos

1,763,779 photos uploaded!

Nearby

Snow Depth

Station Depth Elevation
Base Camp 0 in 7030 ft
Two Ocean Plateau 0 in 9240 ft
Lewis Lake Divide 1 in 7850 ft
Thumb Divide 1 in 7980 ft
Burroughs Creek 0 in 8750 ft

Earthquake Activity

City Distance Mag. Time & Date
No recent earthquake activity has been reported nearby.
Minimum magnitude displayed is 2.5.

Coastal Water Temperatures

Place Temperature
No Stations Reporting

Nearby Weather Stations